sensor_id;sensor_type;location;lat;lon;timestamp;noise_LAeq;noise_LA_min;noise_LA_max;noise_LA01;noise_LA95
64545;Laerm;50936;51.660;5.616;2023-09-12T00:01:04;39.88;34.69;42.53;;
64545;Laerm;50936;51.660;5.616;2023-09-12T00:03:52;40.03;34.31;42.88;;
64545;Laerm;50936;51.660;5.616;2023-09-12T00:06:39;40.00;36.20;42.65;;
64545;Laerm;50936;51.660;5.616;2023-09-12T00:09:27;39.79;35.66;42.76;;
64545;Laerm;50936;51.660;5.616;2023-09-12T00:12:15;39.71;35.36;43.86;;
64545;Laerm;50936;51.660;5.616;2023-09-12T00:15:03;39.62;35.04;43.19;;
64545;Laerm;50936;51.660;5.616;2023-09-12T00:17:51;38.72;32.93;42.41;;
64545;Laerm;50936;51.660;5.616;2023-09-12T00:20:38;38.01;31.68;43.34;;
64545;Laerm;50936;51.660;5.616;2023-09-12T00:23:26;37.70;31.68;41.22;;
64545;Laerm;50936;51.660;5.616;2023-09-12T00:26:13;37.74;32.35;44.19;;
64545;Laerm;50936;51.660;5.616;2023-09-12T00:29:02;37.83;30.89;45.33;;
64545;Laerm;50936;51.660;5.616;2023-09-12T00:31:49;39.18;32.35;43.39;;
64545;Laerm;50936;51.660;5.616;2023-09-12T00:34:36;40.05;35.36;45.20;;
64545;Laerm;50936;51.660;5.616;2023-09-12T00:37:23;40.05;35.94;42.65;;
64545;Laerm;50936;51.660;5.616;2023-09-12T00:40:12;40.53;36.45;44.43;;
64545;Laerm;50936;51.660;5.616;2023-09-12T00:43:00;40.30;35.66;43.09;;
64545;Laerm;50936;51.660;5.616;2023-09-12T00:45:47;40.26;35.66;42.98;;
64545;Laerm;50936;51.660;5.616;2023-09-12T00:48:37;40.36;36.20;43.34;;
64545;Laerm;50936;51.660;5.616;2023-09-12T00:51:28;40.13;35.36;42.59;;
64545;Laerm;50936;51.660;5.616;2023-09-12T00:54:16;40.22;35.04;49.74;;
64545;Laerm;50936;51.660;5.616;2023-09-12T00:57:04;40.23;35.66;43.29;;
64545;Laerm;50936;51.660;5.616;2023-09-12T00:59:53;40.16;35.66;42.93;;
64545;Laerm;50936;51.660;5.616;2023-09-12T01:02:42;40.14;35.94;43.49;;
64545;Laerm;50936;51.660;5.616;2023-09-12T01:05:30;40.19;35.36;49.06;;
64545;Laerm;50936;51.660;5.616;2023-09-12T01:08:17;40.19;36.20;43.90;;
64545;Laerm;50936;51.660;5.616;2023-09-12T01:11:05;40.22;36.45;42.69;;
64545;Laerm;50936;51.660;5.616;2023-09-12T01:13:53;40.16;35.66;42.82;;
64545;Laerm;50936;51.660;5.616;2023-09-12T01:16:41;39.54;33.44;46.71;;
64545;Laerm;50936;51.660;5.616;2023-09-12T01:19:28;37.97;32.35;42.95;;
64545;Laerm;50936;51.660;5.616;2023-09-12T01:22:33;37.95;31.68;42.35;;
64545;Laerm;50936;51.660;5.616;2023-09-12T01:28:48;38.23;29.92;43.90;;
64545;Laerm;50936;51.660;5.616;2023-09-12T01:31:38;37.87;31.68;42.88;;
64545;Laerm;50936;51.660;5.616;2023-09-12T01:34:27;38.15;32.93;42.88;;
64545;Laerm;50936;51.660;5.616;2023-09-12T01:37:15;37.62;32.35;40.62;;
64545;Laerm;50936;51.660;5.616;2023-09-12T01:40:03;38.25;30.89;43.63;;
64545;Laerm;50936;51.660;5.616;2023-09-12T01:42:52;37.73;31.68;42.41;;
64545;Laerm;50936;51.660;5.616;2023-09-12T01:45:42;37.65;32.93;40.80;;
64545;Laerm;50936;51.660;5.616;2023-09-12T01:48:34;38.42;33.90;45.04;;
64545;Laerm;50936;51.660;5.616;2023-09-12T01:51:24;37.72;32.93;45.01;;
64545;Laerm;50936;51.660;5.616;2023-09-12T01:54:14;37.63;32.35;42.09;;
64545;Laerm;50936;51.660;5.616;2023-09-12T01:57:02;38.70;31.68;45.20;;
64545;Laerm;50936;51.660;5.616;2023-09-12T01:59:50;37.82;32.35;43.49;;
64545;Laerm;50936;51.660;5.616;2023-09-12T02:02:37;38.13;32.93;44.12;;
64545;Laerm;50936;51.660;5.616;2023-09-12T02:05:26;39.67;35.66;46.45;;
64545;Laerm;50936;51.660;5.616;2023-09-12T02:08:13;39.79;35.66;47.42;;
64545;Laerm;50936;51.660;5.616;2023-09-12T02:11:00;39.30;34.69;42.82;;
64545;Laerm;50936;51.660;5.616;2023-09-12T02:13:47;39.45;33.44;44.43;;
64545;Laerm;50936;51.660;5.616;2023-09-12T02:16:36;39.82;35.66;42.71;;
64545;Laerm;50936;51.660;5.616;2023-09-12T02:19:30;39.67;35.36;42.47;;
64545;Laerm;50936;51.660;5.616;2023-09-12T02:22:18;39.98;35.04;44.03;;
64545;Laerm;50936;51.660;5.616;2023-09-12T02:25:07;40.45;36.20;45.69;;
64545;Laerm;50936;51.660;5.616;2023-09-12T02:27:55;39.91;35.66;42.71;;
64545;Laerm;50936;51.660;5.616;2023-09-12T02:30:42;39.73;35.04;42.29;;
64545;Laerm;50936;51.660;5.616;2023-09-12T02:33:29;39.80;35.04;45.48;;
64545;Laerm;50936;51.660;5.616;2023-09-12T02:36:17;39.67;35.36;43.24;;
64545;Laerm;50936;51.660;5.616;2023-09-12T02:39:04;39.75;35.94;42.76;;
64545;Laerm;50936;51.660;5.616;2023-09-12T02:41:52;39.61;35.04;42.90;;
64545;Laerm;50936;51.660;5.616;2023-09-12T02:44:39;41.16;33.90;59.88;;
64545;Laerm;50936;51.660;5.616;2023-09-12T02:47:26;39.83;35.04;48.25;;
64545;Laerm;50936;51.660;5.616;2023-09-12T02:50:13;38.63;32.93;45.89;;
64545;Laerm;50936;51.660;5.616;2023-09-12T02:53:00;39.14;33.90;43.34;;
64545;Laerm;50936;51.660;5.616;2023-09-12T02:55:48;37.75;32.35;40.54;;
64545;Laerm;50936;51.660;5.616;2023-09-12T02:58:35;38.49;31.68;44.23;;
64545;Laerm;50936;51.660;5.616;2023-09-12T03:01:22;38.08;32.93;42.82;;
64545;Laerm;50936;51.660;5.616;2023-09-12T03:04:09;39.11;33.44;43.19;;
64545;Laerm;50936;51.660;5.616;2023-09-12T03:06:57;38.69;32.93;43.81;;
64545;Laerm;50936;51.660;5.616;2023-09-12T03:09:44;38.42;33.44;43.49;;
64545;Laerm;50936;51.660;5.616;2023-09-12T03:12:31;39.18;33.90;44.01;;
64545;Laerm;50936;51.660;5.616;2023-09-12T03:15:18;38.88;33.90;43.44;;
64545;Laerm;50936;51.660;5.616;2023-09-12T03:18:09;39.23;32.93;43.49;;
64545;Laerm;50936;51.660;5.616;2023-09-12T03:20:57;39.04;33.44;43.37;;
64545;Laerm;50936;51.660;5.616;2023-09-12T03:23:44;38.91;34.31;43.09;;
64545;Laerm;50936;51.660;5.616;2023-09-12T03:26:34;39.31;33.44;44.58;;
64545;Laerm;50936;51.660;5.616;2023-09-12T03:29:21;38.99;32.35;44.65;;
64545;Laerm;50936;51.660;5.616;2023-09-12T03:32:09;40.01;33.90;45.01;;
64545;Laerm;50936;51.660;5.616;2023-09-12T03:34:56;40.24;35.36;43.94;;
64545;Laerm;50936;51.660;5.616;2023-09-12T03:37:43;40.03;35.94;43.24;;
64545;Laerm;50936;51.660;5.616;2023-09-12T03:40:31;40.47;35.04;44.65;;
64545;Laerm;50936;51.660;5.616;2023-09-12T03:43:19;40.60;35.66;44.54;;
64545;Laerm;50936;51.660;5.616;2023-09-12T03:46:06;40.74;36.69;47.36;;
64545;Laerm;50936;51.660;5.616;2023-09-12T03:48:54;40.86;35.94;48.05;;
64545;Laerm;50936;51.660;5.616;2023-09-12T03:51:41;41.54;36.91;58.71;;
64545;Laerm;50936;51.660;5.616;2023-09-12T03:54:28;40.30;36.20;43.44;;
64545;Laerm;50936;51.660;5.616;2023-09-12T03:57:16;40.47;36.34;48.98;;
64545;Laerm;50936;51.660;5.616;2023-09-12T04:00:04;40.52;36.91;43.72;;
64545;Laerm;50936;51.660;5.616;2023-09-12T04:02:59;40.60;35.66;43.86;;
64545;Laerm;50936;51.660;5.616;2023-09-12T04:05:47;40.25;35.66;43.86;;
64545;Laerm;50936;51.660;5.616;2023-09-12T04:08:34;40.95;36.69;44.83;;
64545;Laerm;50936;51.660;5.616;2023-09-12T04:11:21;40.42;35.66;43.90;;
64545;Laerm;50936;51.660;5.616;2023-09-12T04:14:28;40.44;36.45;45.17;;
64545;Laerm;50936;51.660;5.616;2023-09-12T04:17:15;41.19;36.45;47.48;;
64545;Laerm;50936;51.660;5.616;2023-09-12T04:20:03;40.52;36.69;43.24;;
64545;Laerm;50936;51.660;5.616;2023-09-12T04:22:51;40.82;36.45;43.90;;
64545;Laerm;50936;51.660;5.616;2023-09-12T04:25:42;40.81;36.91;44.62;;
64545;Laerm;50936;51.660;5.616;2023-09-12T04:28:30;40.54;35.36;44.03;;
64545;Laerm;50936;51.660;5.616;2023-09-12T04:31:17;39.52;34.31;45.66;;
64545;Laerm;50936;51.660;5.616;2023-09-12T04:34:05;39.26;32.35;43.94;;
64545;Laerm;50936;51.660;5.616;2023-09-12T04:36:53;39.33;34.31;44.69;;
64545;Laerm;50936;51.660;5.616;2023-09-12T04:39:41;44.19;35.04;68.20;;
64545;Laerm;50936;51.660;5.616;2023-09-12T04:42:28;41.47;36.45;57.83;;
64545;Laerm;50936;51.660;5.616;2023-09-12T04:45:16;40.95;35.36;45.51;;
64545;Laerm;50936;51.660;5.616;2023-09-12T04:48:04;41.53;35.94;51.93;;
64545;Laerm;50936;51.660;5.616;2023-09-12T04:50:51;41.61;37.12;54.71;;
64545;Laerm;50936;51.660;5.616;2023-09-12T04:53:38;42.03;36.20;53.46;;
64545;Laerm;50936;51.660;5.616;2023-09-12T04:56:27;43.13;36.91;59.79;;
64545;Laerm;50936;51.660;5.616;2023-09-12T04:59:14;44.50;36.91;72.68;;
64545;Laerm;50936;51.660;5.616;2023-09-12T05:02:01;44.58;38.81;69.90;;
64545;Laerm;50936;51.660;5.616;2023-09-12T05:04:50;44.05;36.45;67.21;;
64545;Laerm;50936;51.660;5.616;2023-09-12T05:07:37;41.97;35.66;56.71;;
64545;Laerm;50936;51.660;5.616;2023-09-12T05:10:25;41.71;36.45;52.39;;
64545;Laerm;50936;51.660;5.616;2023-09-12T05:13:12;41.16;36.91;53.44;;
64545;Laerm;50936;51.660;5.616;2023-09-12T05:16:00;41.66;36.69;44.80;;
64545;Laerm;50936;51.660;5.616;2023-09-12T05:18:47;41.76;37.52;47.77;;
64545;Laerm;50936;51.660;5.616;2023-09-12T05:21:36;42.20;37.70;51.49;;
64545;Laerm;50936;51.660;5.616;2023-09-12T05:24:23;41.92;38.81;46.64;;
64545;Laerm;50936;51.660;5.616;2023-09-12T05:27:10;43.22;37.32;58.70;;
64545;Laerm;50936;51.660;5.616;2023-09-12T05:29:58;44.90;38.05;70.42;;
64545;Laerm;50936;51.660;5.616;2023-09-12T05:32:45;41.45;37.32;61.17;;
64545;Laerm;50936;51.660;5.616;2023-09-12T05:35:32;42.70;37.52;54.11;;
64545;Laerm;50936;51.660;5.616;2023-09-12T05:38:20;42.15;36.91;48.19;;
64545;Laerm;50936;51.660;5.616;2023-09-12T05:41:07;42.32;37.88;54.48;;
64545;Laerm;50936;51.660;5.616;2023-09-12T05:43:54;47.42;37.88;67.01;;
64545;Laerm;50936;51.660;5.616;2023-09-12T05:46:41;44.60;38.05;60.24;;
64545;Laerm;50936;51.660;5.616;2023-09-12T05:49:28;48.65;37.52;67.91;;
64545;Laerm;50936;51.660;5.616;2023-09-12T05:52:18;46.69;37.70;68.89;;
64545;Laerm;50936;51.660;5.616;2023-09-12T05:55:05;50.46;38.21;71.38;;
64545;Laerm;50936;51.660;5.616;2023-09-12T05:57:53;50.35;37.88;69.30;;
64545;Laerm;50936;51.660;5.616;2023-09-12T06:00:41;55.03;39.81;69.80;;
64545;Laerm;50936;51.660;5.616;2023-09-12T06:03:28;50.42;39.08;63.12;;
64545;Laerm;50936;51.660;5.616;2023-09-12T06:06:16;50.79;38.21;65.88;;
64545;Laerm;50936;51.660;5.616;2023-09-12T06:09:03;49.97;39.58;62.15;;
64545;Laerm;50936;51.660;5.616;2023-09-12T06:11:50;54.08;39.21;73.48;;
64545;Laerm;50936;51.660;5.616;2023-09-12T06:14:37;53.97;40.13;73.66;;
64545;Laerm;50936;51.660;5.616;2023-09-12T06:17:25;53.09;40.03;76.61;;
64545;Laerm;50936;51.660;5.616;2023-09-12T06:20:12;53.48;39.70;74.15;;
64545;Laerm;50936;51.660;5.616;2023-09-12T06:22:59;57.67;40.71;79.28;;
64545;Laerm;50936;51.660;5.616;2023-09-12T06:25:47;57.18;40.27;79.97;;
64545;Laerm;50936;51.660;5.616;2023-09-12T06:28:34;54.63;40.23;79.61;;
64545;Laerm;50936;51.660;5.616;2023-09-12T06:31:21;52.79;39.34;72.99;;
64545;Laerm;50936;51.660;5.616;2023-09-12T06:34:09;51.05;39.58;72.10;;
64545;Laerm;50936;51.660;5.616;2023-09-12T06:36:56;60.94;39.08;79.08;;
64545;Laerm;50936;51.660;5.616;2023-09-12T06:39:43;60.06;38.67;76.44;;
64545;Laerm;50936;51.660;5.616;2023-09-12T06:42:31;59.94;39.81;74.99;;
64545;Laerm;50936;51.660;5.616;2023-09-12T06:45:18;58.45;38.95;73.16;;
64545;Laerm;50936;51.660;5.616;2023-09-12T06:48:06;57.70;38.37;71.83;;
64545;Laerm;50936;51.660;5.616;2023-09-12T06:50:54;58.20;38.81;76.52;;
64545;Laerm;50936;51.660;5.616;2023-09-12T06:53:42;58.51;38.52;74.30;;
64545;Laerm;50936;51.660;5.616;2023-09-12T06:56:29;60.57;37.70;76.90;;
64545;Laerm;50936;51.660;5.616;2023-09-12T06:59:16;58.42;38.37;72.03;;
64545;Laerm;50936;51.660;5.616;2023-09-12T07:02:04;56.13;38.52;74.87;;
64545;Laerm;50936;51.660;5.616;2023-09-12T07:04:52;58.95;39.58;74.46;;
64545;Laerm;50936;51.660;5.616;2023-09-12T07:07:39;63.94;37.70;83.44;;
64545;Laerm;50936;51.660;5.616;2023-09-12T07:10:26;60.64;38.52;77.17;;
64545;Laerm;50936;51.660;5.616;2023-09-12T07:13:13;62.94;38.67;83.50;;
64545;Laerm;50936;51.660;5.616;2023-09-12T07:16:01;59.46;38.67;74.94;;
64545;Laerm;50936;51.660;5.616;2023-09-12T07:18:51;60.60;38.21;76.87;;
64545;Laerm;50936;51.660;5.616;2023-09-12T07:21:38;55.60;38.52;78.19;;
64545;Laerm;50936;51.660;5.616;2023-09-12T07:24:27;61.98;38.21;79.70;;
64545;Laerm;50936;51.660;5.616;2023-09-12T07:27:14;61.57;38.05;81.40;;
64545;Laerm;50936;51.660;5.616;2023-09-12T07:30:02;53.16;38.52;75.45;;
64545;Laerm;50936;51.660;5.616;2023-09-12T07:32:49;59.88;38.52;76.27;;
64545;Laerm;50936;51.660;5.616;2023-09-12T07:35:39;54.94;39.08;73.30;;
64545;Laerm;50936;51.660;5.616;2023-09-12T07:38:27;52.66;37.70;71.78;;
64545;Laerm;50936;51.660;5.616;2023-09-12T07:41:14;60.15;37.32;77.11;;
64545;Laerm;50936;51.660;5.616;2023-09-12T07:44:01;60.22;37.88;76.33;;
64545;Laerm;50936;51.660;5.616;2023-09-12T07:46:51;59.56;38.67;78.46;;
64545;Laerm;50936;51.660;5.616;2023-09-12T07:49:38;60.24;38.21;79.73;;
64545;Laerm;50936;51.660;5.616;2023-09-12T07:52:29;61.50;37.88;79.49;;
64545;Laerm;50936;51.660;5.616;2023-09-12T07:55:16;64.79;37.88;80.60;;
64545;Laerm;50936;51.660;5.616;2023-09-12T07:58:03;63.41;37.70;79.73;;
64545;Laerm;50936;51.660;5.616;2023-09-12T08:00:51;58.52;39.81;76.21;;
64545;Laerm;50936;51.660;5.616;2023-09-12T08:03:39;58.60;39.08;76.02;;
64545;Laerm;50936;51.660;5.616;2023-09-12T08:06:27;58.60;38.21;74.22;;
64545;Laerm;50936;51.660;5.616;2023-09-12T08:09:15;59.41;41.53;74.77;;
64545;Laerm;50936;51.660;5.616;2023-09-12T08:12:02;56.05;39.58;72.03;;
64545;Laerm;50936;51.660;5.616;2023-09-12T08:14:49;58.05;39.92;71.01;;
64545;Laerm;50936;51.660;5.616;2023-09-12T08:17:37;60.07;38.18;73.26;;
64545;Laerm;50936;51.660;5.616;2023-09-12T08:20:25;59.21;37.88;74.22;;
64545;Laerm;50936;51.660;5.616;2023-09-12T08:23:12;59.08;38.05;72.99;;
64545;Laerm;50936;51.660;5.616;2023-09-12T08:26:00;60.45;39.70;75.44;;
64545;Laerm;50936;51.660;5.616;2023-09-12T08:28:47;58.81;39.81;72.35;;
64545;Laerm;50936;51.660;5.616;2023-09-12T08:31:34;58.76;39.58;74.07;;
64545;Laerm;50936;51.660;5.616;2023-09-12T08:34:21;58.74;39.21;73.41;;
64545;Laerm;50936;51.660;5.616;2023-09-12T08:37:09;55.79;39.21;73.23;;
64545;Laerm;50936;51.660;5.616;2023-09-12T08:39:56;59.80;40.13;75.63;;
64545;Laerm;50936;51.660;5.616;2023-09-12T08:42:47;57.80;40.62;72.49;;
64545;Laerm;50936;51.660;5.616;2023-09-12T08:45:35;58.49;39.58;71.18;;
64545;Laerm;50936;51.660;5.616;2023-09-12T08:48:24;59.81;39.46;75.64;;
64545;Laerm;50936;51.660;5.616;2023-09-12T08:51:12;47.92;38.05;72.38;;
64545;Laerm;50936;51.660;5.616;2023-09-12T08:53:59;48.63;38.95;77.44;;
64545;Laerm;50936;51.660;5.616;2023-09-12T08:56:49;42.61;38.52;45.39;;
64545;Laerm;50936;51.660;5.616;2023-09-12T08:59:37;50.93;37.32;68.83;;
64545;Laerm;50936;51.660;5.616;2023-09-12T09:02:24;44.03;33.90;64.58;;
64545;Laerm;50936;51.660;5.616;2023-09-12T09:05:12;41.65;37.70;44.43;;
64545;Laerm;50936;51.660;5.616;2023-09-12T09:08:02;41.55;37.70;43.81;;
64545;Laerm;50936;51.660;5.616;2023-09-12T09:10:58;40.82;36.91;43.81;;
64545;Laerm;50936;51.660;5.616;2023-09-12T09:13:46;41.08;36.69;45.83;;
64545;Laerm;50936;51.660;5.616;2023-09-12T09:16:35;40.82;37.12;45.30;;
64545;Laerm;50936;51.660;5.616;2023-09-12T09:19:40;40.76;36.69;44.03;;
64545;Laerm;50936;51.660;5.616;2023-09-12T09:22:28;40.92;37.12;44.39;;
64545;Laerm;50936;51.660;5.616;2023-09-12T09:25:16;40.73;36.69;43.86;;
64545;Laerm;50936;51.660;5.616;2023-09-12T09:28:04;40.09;36.20;43.24;;
64545;Laerm;50936;51.660;5.616;2023-09-12T09:30:52;40.07;34.69;43.49;;
64545;Laerm;50936;51.660;5.616;2023-09-12T09:33:42;39.83;33.90;43.49;;
64545;Laerm;50936;51.660;5.616;2023-09-12T09:36:46;40.24;35.36;43.77;;
64545;Laerm;50936;51.660;5.616;2023-09-12T09:39:35;40.21;35.94;44.39;;
64545;Laerm;50936;51.660;5.616;2023-09-12T09:42:22;40.11;34.69;43.77;;
64545;Laerm;50936;51.660;5.616;2023-09-12T09:45:10;40.39;35.66;43.72;;
64545;Laerm;50936;51.660;5.616;2023-09-12T09:48:04;51.68;35.94;79.45;;
64545;Laerm;50936;51.660;5.616;2023-09-12T09:51:02;56.23;37.88;74.61;;
64545;Laerm;50936;51.660;5.616;2023-09-12T09:53:53;52.33;37.32;70.38;;
64545;Laerm;50936;51.660;5.616;2023-09-12T09:56:49;50.83;37.32;75.06;;
64545;Laerm;50936;51.660;5.616;2023-09-12T09:59:37;48.38;37.52;67.89;;
64545;Laerm;50936;51.660;5.616;2023-09-12T10:02:27;53.37;38.67;74.80;;
64545;Laerm;50936;51.660;5.616;2023-09-12T10:05:15;56.11;37.70;79.91;;
64545;Laerm;50936;51.660;5.616;2023-09-12T10:08:07;59.86;38.52;78.95;;
64545;Laerm;50936;51.660;5.616;2023-09-12T10:10:57;57.96;38.52;86.73;;
64545;Laerm;50936;51.660;5.616;2023-09-12T10:13:55;56.07;40.53;84.19;;
64545;Laerm;50936;51.660;5.616;2023-09-12T10:16:48;53.39;39.21;74.49;;
64545;Laerm;50936;51.660;5.616;2023-09-12T10:19:43;48.79;39.21;66.63;;
64545;Laerm;50936;51.660;5.616;2023-09-12T10:22:52;55.51;38.37;84.77;;
64545;Laerm;50936;51.660;5.616;2023-09-12T10:25:43;49.47;39.92;69.41;;
64545;Laerm;50936;51.660;5.616;2023-09-12T10:28:33;49.84;38.32;69.74;;
64545;Laerm;50936;51.660;5.616;2023-09-12T10:31:22;49.01;38.05;69.78;;
64545;Laerm;50936;51.660;5.616;2023-09-12T10:34:14;54.19;36.91;70.96;;
64545;Laerm;50936;51.660;5.616;2023-09-12T10:37:06;56.41;38.21;75.34;;
64545;Laerm;50936;51.660;5.616;2023-09-12T10:39:53;59.98;38.67;87.08;;
64545;Laerm;50936;51.660;5.616;2023-09-12T10:42:42;56.66;38.81;73.77;;
64545;Laerm;50936;51.660;5.616;2023-09-12T10:45:31;55.55;40.03;70.18;;
64545;Laerm;50936;51.660;5.616;2023-09-12T10:48:20;55.94;38.95;72.19;;
64545;Laerm;50936;51.660;5.616;2023-09-12T10:51:09;56.52;40.23;72.70;;
64545;Laerm;50936;51.660;5.616;2023-09-12T10:53:57;55.19;39.46;66.97;;
64545;Laerm;50936;51.660;5.616;2023-09-12T10:56:44;58.23;39.34;72.44;;
64545;Laerm;50936;51.660;5.616;2023-09-12T11:00:17;58.69;37.88;72.97;;
64545;Laerm;50936;51.660;5.616;2023-09-12T11:06:29;53.48;38.52;66.80;;
64545;Laerm;50936;51.660;5.616;2023-09-12T11:09:21;57.63;39.34;79.77;;
64545;Laerm;50936;51.660;5.616;2023-09-12T11:12:35;53.63;38.37;68.43;;
64545;Laerm;50936;51.660;5.616;2023-09-12T11:15:26;52.99;39.08;64.42;;
64545;Laerm;50936;51.660;5.616;2023-09-12T11:18:13;56.51;39.08;76.62;;
64545;Laerm;50936;51.660;5.616;2023-09-12T11:21:02;52.62;39.21;70.17;;
64545;Laerm;50936;51.660;5.616;2023-09-12T11:23:55;53.45;39.58;71.12;;
64545;Laerm;50936;51.660;5.616;2023-09-12T11:27:02;55.27;38.37;68.73;;
64545;Laerm;50936;51.660;5.616;2023-09-12T11:30:04;56.90;38.95;83.76;;
64545;Laerm;50936;51.660;5.616;2023-09-12T11:32:54;56.05;38.95;68.96;;
64545;Laerm;50936;51.660;5.616;2023-09-12T11:35:41;55.71;38.67;69.22;;
64545;Laerm;50936;51.660;5.616;2023-09-12T11:38:31;56.51;40.23;69.34;;
64545;Laerm;50936;51.660;5.616;2023-09-12T11:41:39;56.85;39.70;68.06;;
64545;Laerm;50936;51.660;5.616;2023-09-12T11:44:27;53.81;38.05;74.42;;
64545;Laerm;50936;51.660;5.616;2023-09-12T11:47:15;53.20;37.12;71.68;;
64545;Laerm;50936;51.660;5.616;2023-09-12T11:50:02;59.70;38.21;90.55;;
64545;Laerm;50936;51.660;5.616;2023-09-12T11:52:49;53.55;38.21;65.08;;
64545;Laerm;50936;51.660;5.616;2023-09-12T11:55:44;52.44;38.52;63.85;;
64545;Laerm;50936;51.660;5.616;2023-09-12T11:58:31;52.58;37.32;69.24;;
64545;Laerm;50936;51.660;5.616;2023-09-12T12:01:19;53.30;37.70;68.20;;
64545;Laerm;50936;51.660;5.616;2023-09-12T12:04:06;55.16;38.05;67.90;;
64545;Laerm;50936;51.660;5.616;2023-09-12T12:06:54;52.99;38.52;66.20;;
64545;Laerm;50936;51.660;5.616;2023-09-12T12:09:42;52.67;38.21;64.40;;
64545;Laerm;50936;51.660;5.616;2023-09-12T12:12:29;52.77;38.67;65.35;;
64545;Laerm;50936;51.660;5.616;2023-09-12T12:15:16;53.15;39.08;64.02;;
64545;Laerm;50936;51.660;5.616;2023-09-12T12:18:04;52.88;38.81;65.73;;
64545;Laerm;50936;51.660;5.616;2023-09-12T12:20:51;52.17;38.52;63.47;;
64545;Laerm;50936;51.660;5.616;2023-09-12T12:23:39;52.86;38.21;63.96;;
64545;Laerm;50936;51.660;5.616;2023-09-12T12:26:26;52.50;39.46;66.67;;
64545;Laerm;50936;51.660;5.616;2023-09-12T12:29:16;53.31;38.60;65.25;;
64545;Laerm;50936;51.660;5.616;2023-09-12T12:32:03;52.07;38.52;66.98;;
64545;Laerm;50936;51.660;5.616;2023-09-12T12:34:52;54.52;38.81;66.18;;
64545;Laerm;50936;51.660;5.616;2023-09-12T12:37:59;54.25;39.08;67.20;;
64545;Laerm;50936;51.660;5.616;2023-09-12T12:40:54;53.75;38.67;64.81;;
64545;Laerm;50936;51.660;5.616;2023-09-12T12:43:42;62.42;39.81;81.07;;
64545;Laerm;50936;51.660;5.616;2023-09-12T12:46:30;56.29;38.95;72.09;;
64545;Laerm;50936;51.660;5.616;2023-09-12T12:49:21;57.30;39.70;78.81;;
64545;Laerm;50936;51.660;5.616;2023-09-12T12:52:10;55.91;39.81;79.36;;
64545;Laerm;50936;51.660;5.616;2023-09-12T12:55:11;55.58;37.12;78.66;;
64545;Laerm;50936;51.660;5.616;2023-09-12T12:57:59;58.86;36.45;87.12;;
64545;Laerm;50936;51.660;5.616;2023-09-12T13:00:46;55.87;37.70;78.26;;
64545;Laerm;50936;51.660;5.616;2023-09-12T13:03:33;53.76;37.70;73.94;;
64545;Laerm;50936;51.660;5.616;2023-09-12T13:06:20;53.67;38.95;73.98;;
64545;Laerm;50936;51.660;5.616;2023-09-12T13:09:09;54.36;37.88;69.02;;
64545;Laerm;50936;51.660;5.616;2023-09-12T13:11:59;51.54;37.70;71.13;;
64545;Laerm;50936;51.660;5.616;2023-09-12T13:14:47;41.30;37.12;57.19;;
64545;Laerm;50936;51.660;5.616;2023-09-12T13:17:34;56.31;37.12;71.47;;
64545;Laerm;50936;51.660;5.616;2023-09-12T13:20:21;47.37;37.12;69.73;;
64545;Laerm;50936;51.660;5.616;2023-09-12T13:23:09;47.41;37.32;71.27;;
64545;Laerm;50936;51.660;5.616;2023-09-12T13:25:57;55.03;38.05;76.24;;
64545;Laerm;50936;51.660;5.616;2023-09-12T13:28:44;46.38;37.70;72.92;;
64545;Laerm;50936;51.660;5.616;2023-09-12T13:31:31;53.20;38.21;85.38;;
64545;Laerm;50936;51.660;5.616;2023-09-12T13:34:19;48.29;37.32;75.06;;
64545;Laerm;50936;51.660;5.616;2023-09-12T13:37:06;41.32;36.20;54.70;;
64545;Laerm;50936;51.660;5.616;2023-09-12T13:39:59;42.64;37.52;67.07;;
64545;Laerm;50936;51.660;5.616;2023-09-12T13:42:46;41.73;37.52;57.88;;
64545;Laerm;50936;51.660;5.616;2023-09-12T13:45:34;43.46;38.05;67.70;;
64545;Laerm;50936;51.660;5.616;2023-09-12T13:48:21;42.14;38.05;54.88;;
64545;Laerm;50936;51.660;5.616;2023-09-12T13:51:09;46.30;38.52;67.25;;
64545;Laerm;50936;51.660;5.616;2023-09-12T13:53:59;50.58;35.94;71.05;;
64545;Laerm;50936;51.660;5.616;2023-09-12T13:56:57;54.11;38.05;76.30;;
64545;Laerm;50936;51.660;5.616;2023-09-12T13:59:45;42.62;37.32;58.40;;
64545;Laerm;50936;51.660;5.616;2023-09-12T14:02:32;42.15;37.12;61.74;;
64545;Laerm;50936;51.660;5.616;2023-09-12T14:05:21;42.17;37.32;61.24;;
64545;Laerm;50936;51.660;5.616;2023-09-12T14:08:09;58.84;37.52;88.47;;
64545;Laerm;50936;51.660;5.616;2023-09-12T14:10:57;41.04;36.45;60.16;;
64545;Laerm;50936;51.660;5.616;2023-09-12T14:13:44;59.11;36.91;79.86;;
64545;Laerm;50936;51.660;5.616;2023-09-12T14:16:33;61.82;36.69;81.98;;
64545;Laerm;50936;51.660;5.616;2023-09-12T14:19:20;61.89;36.69;83.04;;
64545;Laerm;50936;51.660;5.616;2023-09-12T14:22:09;59.66;36.91;91.69;;
64545;Laerm;50936;51.660;5.616;2023-09-12T14:24:58;42.39;36.45;59.93;;
64545;Laerm;50936;51.660;5.616;2023-09-12T14:27:45;41.36;36.91;56.59;;
64545;Laerm;50936;51.660;5.616;2023-09-12T14:30:32;44.37;37.12;73.93;;
64545;Laerm;50936;51.660;5.616;2023-09-12T14:33:24;53.88;37.12;79.01;;
64545;Laerm;50936;51.660;5.616;2023-09-12T14:36:12;47.35;36.91;76.19;;
64545;Laerm;50936;51.660;5.616;2023-09-12T14:38:59;44.67;37.12;74.16;;
64545;Laerm;50936;51.660;5.616;2023-09-12T14:41:46;43.51;37.52;64.59;;
64545;Laerm;50936;51.660;5.616;2023-09-12T14:44:38;48.86;37.32;75.46;;
64545;Laerm;50936;51.660;5.616;2023-09-12T14:47:25;42.24;37.52;59.78;;
64545;Laerm;50936;51.660;5.616;2023-09-12T14:50:14;43.12;35.94;64.68;;
64545;Laerm;50936;51.660;5.616;2023-09-12T14:53:02;41.92;37.52;60.78;;
64545;Laerm;50936;51.660;5.616;2023-09-12T14:55:50;52.78;36.91;73.58;;
64545;Laerm;50936;51.660;5.616;2023-09-12T14:58:37;54.95;40.13;71.88;;
64545;Laerm;50936;51.660;5.616;2023-09-12T15:01:25;52.82;36.98;67.68;;
64545;Laerm;50936;51.660;5.616;2023-09-12T15:04:12;53.56;37.12;79.90;;
64545;Laerm;50936;51.660;5.616;2023-09-12T15:07:00;54.62;38.81;69.66;;
64545;Laerm;50936;51.660;5.616;2023-09-12T15:09:48;53.90;38.52;69.46;;
64545;Laerm;50936;51.660;5.616;2023-09-12T15:12:35;51.65;38.67;71.96;;
64545;Laerm;50936;51.660;5.616;2023-09-12T15:15:22;52.06;38.37;64.06;;
64545;Laerm;50936;51.660;5.616;2023-09-12T15:18:09;55.73;38.37;80.62;;
64545;Laerm;50936;51.660;5.616;2023-09-12T15:20:57;52.61;38.05;68.12;;
64545;Laerm;50936;51.660;5.616;2023-09-12T15:23:44;49.86;38.67;64.46;;
64545;Laerm;50936;51.660;5.616;2023-09-12T15:26:32;50.02;38.37;73.98;;
64545;Laerm;50936;51.660;5.616;2023-09-12T15:29:19;51.41;39.46;76.94;;
64545;Laerm;50936;51.660;5.616;2023-09-12T15:32:06;47.72;38.21;61.87;;
64545;Laerm;50936;51.660;5.616;2023-09-12T15:34:54;50.56;39.46;63.97;;
64545;Laerm;50936;51.660;5.616;2023-09-12T15:37:42;57.01;38.37;79.48;;
64545;Laerm;50936;51.660;5.616;2023-09-12T15:40:29;60.23;40.23;74.58;;
64545;Laerm;50936;51.660;5.616;2023-09-12T15:43:17;53.07;39.21;67.58;;
64545;Laerm;50936;51.660;5.616;2023-09-12T15:46:11;50.93;37.12;69.92;;
64545;Laerm;50936;51.660;5.616;2023-09-12T15:49:15;48.64;38.67;59.81;;
64545;Laerm;50936;51.660;5.616;2023-09-12T15:52:03;47.47;37.88;63.40;;